Terminal Aerodrome Forecast
Issued by NWS

Home | Current Version | Previous Version | Text Only | Print | Product List | Glossary On
Versions: 1 2 3 4 5 6 7 8 9 10 11 12 13 14 15 16 17 18 19 20 21 22 23 24 25 26 27 28 29 30 31 32 33 34 35 36 37 38 39 40 41 42 43 44 45 46 47 48 49 50
000
FTUS44 KHGX 221610 AAC
TAFCXO
TAF AMD
KCXO 221610Z 2216/2312 02004KT 1SM BR VCSH OVC002
     FM221800 04007KT 3SM BR VCSH OVC005
     FM222000 11007KT 4SM BR VCSH OVC007
     FM230300 13003KT 3SM BR VCSH OVC004
     FM230800 11002KT 1 1/2SM BR OVC003=

USA.gov is the U.S. government's official web portal to all federal, state and local government web resources and services.